Pays
Station

 

Conditions  météo  pour  Skjaldthingsstadir  -  Islande    Islande

  
8 °C
    
 
 

METAR pour Skjaldthingsstadir :

BIVO 240823Z 00000KT 4000 VCFG OVC004 08/08 Q1001

 

Voici le bulletin pour Skjaldthingsstadir - Islande.
 
Le bulletin a été fait il y a 647 heures et 50 minutes, à 08:23 UTC .
Le vent était calme.
 
La température était de 8 °C, avec un point de rosée à 8 °C.
La pression atmosphérique était de 1001 hPa.
L'humidité relative était de 100.0%.
 
Le ciel était nuageux à partir d'une hauteur de 122 mètres
 
La visibilité globale était de 4000 mètres.
 
Actuellement brouillard à proximité.

 
 
 

Pays :   A   B   C   D   E   F   G   H   I   J   K   L   M   N   O   P   Q   R   S   T   U   V   W   Y   Z

 

Partenaires :  Info Météo avec Met'info
Météo Marine avec MeteoMarine.net
Infos Site  |  Infos Légales  |  Crédits  |  Confidentialité
Contactez-nous  |  Ajouter aux favoris
© 2013-2020 METAR - Tous droits réservés